Time;durP1;ratioP1;P1;durP2;ratioP2;P2;SDS_P1;SDS_P2;PMS_P1;PMS_P2;Temp;Humidity;BMP_temperature;BMP_pressure;BME280_temperature;BME280_humidity;BME280_pressure;Samples;Min_cycle;Max_cycle;Signal;HPM_P1;HPM_P2
2023/09/26 00:00:37;;;;;;;0.30;0.30;;;15.30;84.80;;;;;;4951199;28;20439;-66
2023/09/26 00:03:06;;;;;;;0.00;0.00;;;15.30;84.70;;;;;;4971530;28;20520;-66
2023/09/26 00:05:32;;;;;;;0.00;0.00;;;15.30;85.00;;;;;;4968073;28;20494;-67
2023/09/26 00:08:01;;;;;;;0.00;0.00;;;15.30;84.80;;;;;;4969026;28;20173;-67
2023/09/26 00:10:27;;;;;;;0.00;0.00;;;15.30;84.80;;;;;;4956927;28;20043;-66
2023/09/26 00:12:52;;;;;;;0.00;0.00;;;15.30;85.00;;;;;;4969389;28;20054;-67
2023/09/26 00:15:18;;;;;;;0.00;0.00;;;15.20;84.90;;;;;;4970972;28;20038;-66
2023/09/26 00:17:44;;;;;;;0.00;0.00;;;15.20;85.10;;;;;;4971687;28;20190;-66
2023/09/26 00:20:10;;;;;;;0.00;0.00;;;15.20;85.00;;;;;;4971554;28;20098;-66
2023/09/26 00:22:36;;;;;;;0.00;0.00;;;15.20;84.90;;;;;;4970942;28;20039;-67
2023/09/26 00:25:03;;;;;;;0.00;0.00;;;15.20;85.20;;;;;;4970816;28;20057;-66
2023/09/26 00:27:28;;;;;;;0.00;0.00;;;15.20;85.40;;;;;;4971471;28;20126;-66
2023/09/26 00:29:54;;;;;;;0.00;0.00;;;15.20;85.70;;;;;;4970990;28;20086;-66
2023/09/26 00:32:20;;;;;;;0.00;0.00;;;15.20;85.80;;;;;;4971160;28;20039;-66
2023/09/26 00:34:45;;;;;;;0.00;0.00;;;15.10;85.60;;;;;;4971260;28;20194;-66
2023/09/26 00:37:11;;;;;;;0.00;0.00;;;15.20;85.50;;;;;;4970532;28;20062;-66
2023/09/26 00:39:37;;;;;;;0.10;0.10;;;15.10;85.30;;;;;;4971228;28;20054;-66
2023/09/26 00:42:03;;;;;;;0.00;0.00;;;15.10;85.20;;;;;;4983758;28;20057;-67
2023/09/26 00:44:29;;;;;;;0.00;0.00;;;15.00;85.30;;;;;;4969838;28;20059;-66
2023/09/26 00:46:55;;;;;;;0.00;0.00;;;15.00;85.50;;;;;;4969944;28;20120;-66
2023/09/26 00:49:20;;;;;;;0.00;0.00;;;15.00;85.50;;;;;;4971167;28;20042;-66
2023/09/26 00:51:47;;;;;;;0.00;0.00;;;15.00;85.70;;;;;;4970468;28;20045;-66
2023/09/26 00:54:13;;;;;;;0.00;0.00;;;15.10;85.80;;;;;;4970888;28;20073;-66
2023/09/26 00:56:39;;;;;;;0.00;0.00;;;15.00;85.60;;;;;;4969332;28;20496;-66
2023/09/26 00:59:06;;;;;;;0.00;0.00;;;15.00;85.60;;;;;;4968882;28;20043;-66
2023/09/26 01:01:34;;;;;;;0.00;0.00;;;15.00;85.60;;;;;;4970670;28;20121;-67
2023/09/26 01:04:00;;;;;;;0.00;0.00;;;14.90;85.50;;;;;;4969529;28;20061;-67
2023/09/26 01:06:26;;;;;;;0.00;0.00;;;15.00;85.40;;;;;;4969248;28;20043;-67
2023/09/26 01:08:51;;;;;;;0.00;0.00;;;14.90;85.40;;;;;;4968896;28;20054;-67
2023/09/26 01:11:17;;;;;;;0.00;0.00;;;14.90;85.50;;;;;;4968423;28;20045;-67
2023/09/26 01:13:43;;;;;;;0.00;0.00;;;14.90;85.60;;;;;;4969177;28;20505;-67
2023/09/26 01:16:17;;;;;;;0.00;0.00;;;14.90;85.70;;;;;;4969116;28;20584;-68
2023/09/26 01:18:43;;;;;;;0.00;0.00;;;14.90;85.60;;;;;;4969264;28;20050;-67
2023/09/26 01:21:09;;;;;;;0.00;0.00;;;14.90;85.60;;;;;;4969625;28;20073;-67
2023/09/26 01:23:36;;;;;;;0.00;0.00;;;14.90;85.60;;;;;;4968770;28;20042;-67
2023/09/26 01:26:02;;;;;;;0.00;0.00;;;14.90;85.60;;;;;;4968254;28;20096;-66
2023/09/26 01:28:28;;;;;;;0.00;0.00;;;14.80;85.50;;;;;;4968933;28;20077;-67
2023/09/26 01:30:53;;;;;;;0.00;0.00;;;14.90;85.70;;;;;;4969201;28;20665;-66
2023/09/26 01:33:21;;;;;;;0.00;0.00;;;14.90;85.60;;;;;;4968716;28;20082;-67
2023/09/26 01:35:48;;;;;;;0.10;0.10;;;14.80;85.60;;;;;;4968893;28;20073;-67
2023/09/26 01:38:14;;;;;;;0.00;0.00;;;14.80;85.80;;;;;;4969690;28;20078;-67
2023/09/26 01:40:43;;;;;;;0.00;0.00;;;14.80;85.70;;;;;;4969060;28;20050;-69
2023/09/26 01:43:08;;;;;;;0.00;0.00;;;14.80;85.50;;;;;;4968272;28;20042;-66
2023/09/26 01:45:34;;;;;;;0.00;0.00;;;14.70;85.40;;;;;;4968794;28;20047;-66
2023/09/26 01:48:00;;;;;;;0.00;0.00;;;14.70;85.40;;;;;;4968538;28;20523;-67
2023/09/26 01:50:26;;;;;;;0.00;0.00;;;14.70;85.50;;;;;;4969270;28;20039;-66
2023/09/26 01:52:52;;;;;;;0.00;0.00;;;14.70;85.70;;;;;;4968748;28;20098;-67
2023/09/26 01:55:22;;;;;;;0.00;0.00;;;14.60;85.70;;;;;;4967916;28;20054;-66
2023/09/26 01:57:48;;;;;;;0.00;0.00;;;14.70;85.60;;;;;;4968445;28;20047;-67
2023/09/26 02:00:14;;;;;;;0.00;0.00;;;14.70;85.70;;;;;;4968315;28;20046;-67
2023/09/26 02:02:48;;;;;;;0.00;0.00;;;14.70;85.70;;;;;;4968514;28;20134;-66
2023/09/26 02:05:16;;;;;;;0.00;0.00;;;14.70;85.60;;;;;;4968799;28;20764;-67
2023/09/26 02:07:43;;;;;;;0.00;0.00;;;14.60;85.50;;;;;;4968197;28;20043;-67
2023/09/26 02:10:09;;;;;;;0.05;0.05;;;14.70;85.50;;;;;;4968534;28;20039;-67
2023/09/26 02:12:37;;;;;;;0.00;0.00;;;14.70;85.50;;;;;;4967875;28;20496;-67
2023/09/26 02:15:05;;;;;;;0.00;0.00;;;14.60;85.40;;;;;;4968569;28;20057;-67
2023/09/26 02:17:33;;;;;;;0.25;0.25;;;14.70;85.50;;;;;;4968445;28;20082;-67
2023/09/26 02:20:00;;;;;;;0.00;0.00;;;14.60;85.50;;;;;;4968476;28;20047;-67
2023/09/26 02:22:25;;;;;;;0.00;0.00;;;14.60;85.40;;;;;;4968657;28;20039;-67
2023/09/26 02:24:52;;;;;;;0.00;0.00;;;14.70;85.50;;;;;;4968812;28;20046;-66
2023/09/26 02:27:17;;;;;;;0.00;0.00;;;14.70;85.50;;;;;;4968818;28;20046;-67
2023/09/26 02:29:44;;;;;;;0.00;0.00;;;14.60;85.40;;;;;;4968647;28;20483;-67
2023/09/26 02:32:10;;;;;;;0.00;0.00;;;14.60;85.50;;;;;;4972114;28;20055;-67
2023/09/26 02:34:36;;;;;;;0.00;0.00;;;14.60;85.50;;;;;;4973220;28;20089;-67
2023/09/26 02:37:02;;;;;;;0.00;0.00;;;14.60;85.50;;;;;;4971980;28;20038;-67
2023/09/26 02:39:28;;;;;;;0.00;0.00;;;14.70;85.80;;;;;;4972388;28;20114;-67
2023/09/26 02:41:53;;;;;;;0.00;0.00;;;14.70;85.80;;;;;;4972426;28;20061;-67
2023/09/26 02:44:19;;;;;;;0.00;0.00;;;14.70;86.00;;;;;;4972027;28;20050;-66
2023/09/26 02:46:44;;;;;;;0.00;0.00;;;14.60;86.00;;;;;;4972298;28;20109;-67
2023/09/26 02:49:10;;;;;;;0.00;0.00;;;14.60;86.00;;;;;;4972121;28;20039;-66
2023/09/26 02:51:35;;;;;;;0.00;0.00;;;14.60;86.20;;;;;;4971954;28;20516;-66
2023/09/26 02:54:01;;;;;;;0.00;0.00;;;14.60;86.40;;;;;;4972358;28;20042;-66
2023/09/26 02:56:27;;;;;;;0.00;0.00;;;14.60;86.40;;;;;;4971799;28;20113;-67
2023/09/26 02:58:53;;;;;;;0.00;0.00;;;14.60;86.50;;;;;;4972190;28;20043;-66
2023/09/26 03:01:20;;;;;;;0.00;0.00;;;14.60;86.30;;;;;;4971135;28;20043;-66
2023/09/26 03:03:45;;;;;;;0.00;0.00;;;14.50;86.10;;;;;;4971607;28;20038;-66
2023/09/26 03:06:11;;;;;;;0.00;0.00;;;14.50;86.10;;;;;;4971421;28;20089;-66
2023/09/26 03:08:36;;;;;;;0.00;0.00;;;14.50;86.00;;;;;;4971551;28;20043;-67
2023/09/26 03:11:03;;;;;;;0.00;0.00;;;14.50;86.00;;;;;;4971475;28;20074;-68
2023/09/26 03:13:32;;;;;;;0.00;0.00;;;14.50;86.10;;;;;;4971828;28;20051;-67
2023/09/26 03:15:58;;;;;;;0.00;0.00;;;14.50;86.10;;;;;;4971100;28;20101;-67
2023/09/26 03:18:25;;;;;;;0.00;0.00;;;14.50;86.10;;;;;;4971588;28;20031;-67
2023/09/26 03:20:50;;;;;;;0.00;0.00;;;14.50;86.20;;;;;;4970096;28;20062;-66
2023/09/26 03:23:16;;;;;;;0.00;0.00;;;14.50;86.20;;;;;;4989463;23;20161;-67
2023/09/26 03:25:41;;;;;;;0.00;0.00;;;14.50;86.20;;;;;;4986708;28;20042;-66
2023/09/26 03:28:07;;;;;;;0.00;0.00;;;14.40;86.20;;;;;;4979533;28;20042;-66
2023/09/26 03:30:33;;;;;;;0.00;0.00;;;14.40;86.20;;;;;;4989855;28;20093;-66
2023/09/26 03:32:58;;;;;;;0.00;0.00;;;14.40;86.00;;;;;;4986914;28;20077;-65
2023/09/26 03:35:24;;;;;;;0.00;0.00;;;14.40;86.00;;;;;;4977175;28;20043;-65
2023/09/26 03:37:49;;;;;;;0.00;0.00;;;14.30;85.90;;;;;;4977445;28;20034;-65
2023/09/26 03:40:15;;;;;;;0.00;0.00;;;14.30;85.80;;;;;;4988185;28;20512;-66
2023/09/26 03:42:40;;;;;;;0.00;0.00;;;14.30;85.90;;;;;;4987817;28;20494;-67
2023/09/26 03:45:06;;;;;;;0.00;0.00;;;14.30;85.90;;;;;;4984827;28;20045;-65
2023/09/26 03:47:32;;;;;;;0.00;0.00;;;14.20;85.90;;;;;;4987105;28;20035;-66
2023/09/26 03:49:58;;;;;;;0.00;0.00;;;14.30;85.80;;;;;;4971249;28;20562;-66
2023/09/26 03:52:24;;;;;;;0.03;0.03;;;14.20;85.80;;;;;;4971853;28;20074;-66
2023/09/26 03:54:50;;;;;;;0.00;0.00;;;14.20;85.70;;;;;;4977664;28;20143;-66
2023/09/26 03:57:15;;;;;;;0.00;0.00;;;14.20;85.70;;;;;;4980761;28;20097;-66
2023/09/26 03:59:41;;;;;;;0.00;0.00;;;14.10;85.80;;;;;;4973938;28;20503;-66
2023/09/26 04:02:07;;;;;;;0.00;0.00;;;14.10;85.70;;;;;;4979033;28;20042;-66
2023/09/26 04:04:33;;;;;;;0.00;0.00;;;14.10;85.70;;;;;;4977494;28;20582;-65
2023/09/26 04:06:59;;;;;;;0.03;0.03;;;14.10;85.70;;;;;;4985029;28;20046;-65
2023/09/26 04:09:25;;;;;;;0.10;0.10;;;14.10;85.70;;;;;;4974409;28;20038;-66
2023/09/26 04:11:51;;;;;;;0.00;0.00;;;14.10;85.80;;;;;;4962062;28;20047;-66
2023/09/26 04:14:16;;;;;;;0.00;0.00;;;14.10;85.80;;;;;;4958764;28;20122;-66
2023/09/26 04:16:42;;;;;;;0.00;0.00;;;14.00;85.80;;;;;;4957283;28;20051;-66
2023/09/26 04:19:08;;;;;;;0.00;0.00;;;14.00;85.70;;;;;;4951733;28;20043;-66
2023/09/26 04:21:34;;;;;;;0.00;0.00;;;14.00;85.80;;;;;;4964500;28;20053;-66
2023/09/26 04:24:04;;;;;;;0.00;0.00;;;14.00;85.90;;;;;;4966006;28;20054;-66
2023/09/26 04:26:29;;;;;;;0.00;0.00;;;14.00;85.90;;;;;;4969445;28;20558;-66
2023/09/26 04:28:55;;;;;;;0.00;0.00;;;14.00;86.00;;;;;;4969541;28;20050;-66
2023/09/26 04:31:21;;;;;;;0.00;0.00;;;14.00;86.00;;;;;;4965271;28;20035;-66
2023/09/26 04:33:50;;;;;;;0.00;0.00;;;14.00;86.00;;;;;;4969451;28;20407;-66
2023/09/26 04:36:16;;;;;;;0.00;0.00;;;14.10;86.10;;;;;;4958928;28;20046;-66
2023/09/26 04:38:42;;;;;;;0.00;0.00;;;14.00;86.00;;;;;;4954043;28;20043;-67
2023/09/26 04:41:08;;;;;;;0.00;0.00;;;14.00;86.00;;;;;;4968323;28;20404;-67
2023/09/26 04:43:34;;;;;;;0.00;0.00;;;14.00;85.90;;;;;;4968534;28;20152;-66
2023/09/26 04:46:00;;;;;;;0.00;0.00;;;14.00;86.10;;;;;;4964896;28;20428;-66
2023/09/26 04:48:25;;;;;;;0.00;0.00;;;14.00;86.10;;;;;;4963221;28;20047;-66
2023/09/26 04:50:51;;;;;;;0.00;0.00;;;13.90;86.10;;;;;;4957080;28;20043;-67
2023/09/26 04:53:17;;;;;;;0.10;0.10;;;13.90;86.10;;;;;;4951563;28;20078;-67
2023/09/26 04:55:43;;;;;;;0.00;0.00;;;13.90;86.00;;;;;;4953245;28;20074;-67
2023/09/26 04:58:09;;;;;;;0.00;0.00;;;13.90;86.00;;;;;;4961168;28;20739;-66
2023/09/26 05:00:38;;;;;;;0.10;0.10;;;13.90;85.90;;;;;;4968366;28;20042;-66
2023/09/26 05:03:04;;;;;;;0.00;0.00;;;13.90;85.90;;;;;;4963783;28;20047;-65
2023/09/26 05:05:30;;;;;;;0.00;0.00;;;13.80;85.80;;;;;;4953591;28;20074;-65
2023/09/26 05:07:55;;;;;;;0.00;0.00;;;13.80;85.70;;;;;;4956673;28;20485;-65
2023/09/26 05:10:22;;;;;;;0.00;0.00;;;13.70;85.80;;;;;;4963872;28;20046;-66
2023/09/26 05:12:47;;;;;;;0.00;0.00;;;13.70;85.80;;;;;;4962607;28;20054;-66
2023/09/26 05:15:15;;;;;;;0.00;0.00;;;13.70;85.90;;;;;;4953685;28;20039;-65
2023/09/26 05:17:51;;;;;;;0.00;0.00;;;13.70;86.00;;;;;;4958055;28;20047;-66
2023/09/26 05:20:17;;;;;;;0.00;0.00;;;13.70;86.10;;;;;;4959721;28;20043;-67
2023/09/26 05:22:47;;;;;;;0.00;0.00;;;13.70;86.30;;;;;;4980958;28;20062;-66
2023/09/26 05:25:13;;;;;;;0.00;0.00;;;13.80;86.30;;;;;;4967751;28;20100;-65
2023/09/26 05:27:39;;;;;;;0.00;0.00;;;13.80;86.20;;;;;;4958808;28;20716;-65
2023/09/26 05:30:06;;;;;;;0.10;0.10;;;13.70;86.10;;;;;;4966083;28;20038;-65
2023/09/26 05:32:32;;;;;;;0.00;0.00;;;13.70;86.10;;;;;;4960184;28;20047;-65
2023/09/26 05:34:58;;;;;;;0.00;0.00;;;13.80;86.10;;;;;;4967029;28;20050;-65
2023/09/26 05:37:24;;;;;;;0.00;0.00;;;13.80;86.10;;;;;;4961071;28;20039;-65
2023/09/26 05:39:50;;;;;;;0.00;0.00;;;13.80;86.00;;;;;;4957012;28;20047;-66
2023/09/26 05:42:16;;;;;;;0.00;0.00;;;13.80;86.00;;;;;;4966228;28;20085;-65
2023/09/26 05:44:42;;;;;;;0.00;0.00;;;13.90;86.00;;;;;;4966799;28;20128;-65
2023/09/26 05:47:07;;;;;;;0.00;0.00;;;13.80;86.00;;;;;;4965643;28;20042;-65
2023/09/26 05:49:33;;;;;;;0.00;0.00;;;13.90;86.00;;;;;;4973506;28;20101;-67
2023/09/26 05:51:59;;;;;;;0.00;0.00;;;13.90;86.00;;;;;;4958999;28;20082;-65
2023/09/26 05:54:24;;;;;;;0.00;0.00;;;13.90;86.00;;;;;;4959677;28;20126;-64
2023/09/26 05:56:50;;;;;;;0.10;0.10;;;14.00;86.00;;;;;;4957748;28;20044;-65
2023/09/26 05:59:15;;;;;;;0.00;0.00;;;14.00;86.00;;;;;;4961526;28;20419;-65
2023/09/26 06:01:41;;;;;;;0.00;0.00;;;14.10;86.00;;;;;;4957726;28;20450;-65
2023/09/26 06:04:07;;;;;;;0.00;0.00;;;14.10;86.00;;;;;;4955840;28;20055;-66
2023/09/26 06:06:33;;;;;;;0.25;0.25;;;14.10;86.00;;;;;;4960741;28;20035;-66
2023/09/26 06:08:59;;;;;;;0.00;0.00;;;14.10;86.10;;;;;;4961160;28;20061;-67
2023/09/26 06:11:24;;;;;;;0.00;0.00;;;14.40;88.60;;;;;;4962449;28;20046;-65
2023/09/26 06:13:52;;;;;;;0.00;0.00;;;14.50;88.00;;;;;;4960941;28;20066;-65
2023/09/26 06:16:19;;;;;;;0.00;0.00;;;14.50;87.70;;;;;;4962589;28;20050;-66
2023/09/26 06:18:44;;;;;;;0.00;0.00;;;14.60;87.50;;;;;;4965943;28;20062;-67
2023/09/26 06:21:12;;;;;;;0.00;0.00;;;14.60;87.40;;;;;;4965281;28;20035;-68
2023/09/26 06:23:38;;;;;;;0.00;0.00;;;14.60;87.20;;;;;;4964250;28;20065;-67
2023/09/26 06:26:04;;;;;;;0.00;0.00;;;14.60;86.90;;;;;;4960454;28;20047;-67
2023/09/26 06:28:30;;;;;;;0.00;0.00;;;14.70;86.80;;;;;;4958789;28;20051;-67
2023/09/26 06:30:56;;;;;;;0.00;0.00;;;14.70;86.70;;;;;;4957723;28;20571;-67
2023/09/26 06:33:21;;;;;;;0.00;0.00;;;14.80;86.70;;;;;;4959062;28;20154;-66
2023/09/26 06:35:47;;;;;;;0.00;0.00;;;14.80;86.70;;;;;;4972474;28;20108;-68
2023/09/26 06:38:13;;;;;;;0.00;0.00;;;14.80;86.80;;;;;;4973595;28;20751;-68
2023/09/26 06:40:39;;;;;;;0.00;0.00;;;14.90;86.80;;;;;;4972342;28;20554;-68
2023/09/26 06:43:04;;;;;;;0.00;0.00;;;14.90;86.70;;;;;;4973070;28;20055;-68
2023/09/26 06:45:30;;;;;;;0.00;0.00;;;15.00;86.60;;;;;;4973324;28;20097;-68
2023/09/26 06:47:57;;;;;;;0.00;0.00;;;15.00;86.50;;;;;;4972440;28;20503;-68
2023/09/26 06:50:22;;;;;;;0.00;0.00;;;15.00;86.40;;;;;;4972656;28;20047;-68
2023/09/26 06:52:48;;;;;;;0.00;0.00;;;15.10;86.50;;;;;;4972689;28;20043;-67
2023/09/26 06:55:14;;;;;;;0.00;0.00;;;15.10;86.60;;;;;;4973224;28;20731;-68
2023/09/26 06:57:40;;;;;;;0.55;0.55;;;15.10;86.50;;;;;;4972289;28;20070;-67
2023/09/26 07:00:16;;;;;;;0.00;0.00;;;15.10;86.40;;;;;;4973084;28;20042;-68
2023/09/26 07:02:42;;;;;;;0.03;0.03;;;15.10;86.40;;;;;;4972560;28;20073;-68
2023/09/26 07:05:08;;;;;;;0.05;0.05;;;15.20;86.40;;;;;;4972590;28;20043;-68
2023/09/26 07:07:34;;;;;;;0.05;0.05;;;15.30;86.40;;;;;;4972346;28;20043;-68
2023/09/26 07:10:01;;;;;;;0.00;0.00;;;15.20;86.30;;;;;;4972524;28;20051;-67
2023/09/26 07:12:27;;;;;;;0.00;0.00;;;15.30;86.30;;;;;;4972248;28;20039;-68
2023/09/26 07:14:53;;;;;;;0.00;0.00;;;15.40;86.30;;;;;;4968286;28;20047;-67
2023/09/26 07:17:18;;;;;;;0.05;0.05;;;15.40;86.20;;;;;;4964941;28;20062;-68
2023/09/26 07:19:44;;;;;;;0.08;0.08;;;15.40;86.20;;;;;;4971906;28;20038;-68
2023/09/26 07:22:10;;;;;;;0.00;0.00;;;15.40;86.40;;;;;;4972316;28;20086;-68
2023/09/26 07:24:36;;;;;;;0.00;0.00;;;15.40;86.60;;;;;;4971783;28;20081;-68
2023/09/26 07:27:02;;;;;;;0.00;0.00;;;15.40;86.50;;;;;;4971482;28;20584;-68
2023/09/26 07:29:28;;;;;;;0.10;0.10;;;15.50;86.60;;;;;;4972006;28;20500;-68
2023/09/26 07:31:54;;;;;;;0.00;0.00;;;15.50;86.50;;;;;;4971298;28;20122;-67
2023/09/26 07:34:20;;;;;;;0.00;0.00;;;15.50;86.50;;;;;;4972535;28;20046;-68
2023/09/26 07:36:47;;;;;;;0.00;0.00;;;15.60;86.50;;;;;;4970331;28;20054;-68
2023/09/26 07:39:14;;;;;;;0.00;0.00;;;15.60;86.60;;;;;;4970610;28;20042;-68
2023/09/26 07:41:40;;;;;;;0.00;0.00;;;15.60;86.60;;;;;;4970400;28;20082;-68
2023/09/26 07:44:06;;;;;;;0.00;0.00;;;15.70;86.70;;;;;;4971535;28;20161;-68
2023/09/26 07:46:32;;;;;;;0.10;0.10;;;15.70;86.70;;;;;;4970300;28;20035;-69
2023/09/26 07:48:57;;;;;;;0.00;0.00;;;15.80;86.50;;;;;;4972077;28;20050;-68
2023/09/26 07:51:23;;;;;;;0.00;0.00;;;15.80;86.50;;;;;;4971761;28;20043;-68
2023/09/26 07:53:49;;;;;;;0.10;0.10;;;15.90;86.60;;;;;;4970816;28;20093;-68
2023/09/26 07:56:14;;;;;;;0.00;0.00;;;16.00;86.60;;;;;;4970591;28;20042;-68
2023/09/26 07:58:40;;;;;;;0.00;0.00;;;16.00;86.50;;;;;;4969585;28;20526;-68
2023/09/26 08:01:07;;;;;;;0.15;0.10;;;16.00;86.30;;;;;;4971035;28;20047;-68
2023/09/26 08:03:33;;;;;;;0.00;0.00;;;16.10;86.20;;;;;;4968861;28;20038;-68
2023/09/26 08:06:04;;;;;;;0.22;0.22;;;16.10;86.00;;;;;;4970192;28;20049;-68
2023/09/26 08:08:31;;;;;;;0.00;0.00;;;16.10;85.80;;;;;;4968858;28;20053;-68
2023/09/26 08:11:03;;;;;;;0.00;0.00;;;16.10;85.90;;;;;;4970319;28;20761;-68
2023/09/26 08:13:28;;;;;;;0.00;0.00;;;16.10;85.80;;;;;;4970040;28;20066;-69
2023/09/26 08:15:54;;;;;;;0.00;0.00;;;16.10;85.70;;;;;;4969326;28;20423;-68
2023/09/26 08:18:20;;;;;;;0.00;0.00;;;16.20;85.80;;;;;;4967920;28;20053;-69
2023/09/26 08:20:46;;;;;;;0.00;0.00;;;16.20;85.90;;;;;;4969789;28;20092;-69
2023/09/26 08:23:11;;;;;;;0.10;0.10;;;16.20;85.80;;;;;;4970435;28;20496;-68
2023/09/26 08:25:37;;;;;;;0.00;0.00;;;16.20;85.70;;;;;;4968136;28;20043;-68
2023/09/26 08:28:04;;;;;;;0.00;0.00;;;16.20;85.70;;;;;;4985169;28;20047;-68
2023/09/26 08:30:29;;;;;;;0.08;0.08;;;16.20;85.70;;;;;;4970278;28;20053;-69
2023/09/26 08:32:56;;;;;;;0.00;0.00;;;16.20;85.60;;;;;;4969997;28;20042;-69
2023/09/26 08:35:21;;;;;;;0.00;0.00;;;16.20;85.50;;;;;;4970512;28;20475;-68
2023/09/26 08:37:47;;;;;;;0.00;0.00;;;16.30;85.50;;;;;;4960302;28;20122;-68
2023/09/26 08:40:13;;;;;;;0.10;0.10;;;16.30;85.60;;;;;;4951263;28;20710;-68
2023/09/26 08:42:42;;;;;;;0.00;0.00;;;16.40;85.70;;;;;;4952141;28;20059;-68
2023/09/26 08:45:08;;;;;;;0.00;0.00;;;16.50;85.50;;;;;;4968533;28;20039;-69
2023/09/26 08:47:38;;;;;;;0.20;0.20;;;16.60;85.00;;;;;;4969292;28;20050;-68
2023/09/26 08:50:04;;;;;;;1.35;0.95;;;16.60;84.90;;;;;;4970933;28;20656;-68
2023/09/26 08:52:30;;;;;;;0.00;0.00;;;16.50;84.70;;;;;;4970163;28;20039;-68
2023/09/26 08:54:56;;;;;;;0.30;0.22;;;16.60;84.60;;;;;;4967352;28;20574;-68
2023/09/26 08:57:23;;;;;;;0.00;0.00;;;16.60;84.60;;;;;;4968590;28;20043;-69
2023/09/26 08:59:49;;;;;;;0.10;0.10;;;16.60;84.60;;;;;;4970205;28;20043;-68
2023/09/26 09:02:15;;;;;;;0.00;0.00;;;16.70;84.60;;;;;;4970253;28;20057;-68
2023/09/26 09:04:43;;;;;;;0.10;0.10;;;16.70;84.60;;;;;;4952286;28;20050;-68
2023/09/26 09:07:10;;;;;;;0.00;0.00;;;16.70;84.60;;;;;;4966880;28;20086;-68
2023/09/26 09:09:36;;;;;;;0.05;0.05;;;16.80;84.40;;;;;;4970327;28;20050;-68
2023/09/26 09:12:02;;;;;;;0.00;0.00;;;16.80;84.30;;;;;;4970347;28;20483;-68
2023/09/26 09:14:32;;;;;;;0.10;0.10;;;16.80;84.30;;;;;;4962874;28;20074;-68
2023/09/26 09:16:58;;;;;;;0.00;0.00;;;16.90;84.30;;;;;;4970530;28;20134;-69
2023/09/26 09:19:43;;;;;;;0.00;0.00;;;16.90;84.30;;;;;;4970182;28;20137;-68
2023/09/26 09:22:20;;;;;;;0.10;0.10;;;17.00;84.20;;;;;;4969732;28;20055;-68
2023/09/26 09:24:56;;;;;;;0.00;0.00;;;17.10;84.20;;;;;;4963558;28;20435;-68
2023/09/26 09:27:32;;;;;;;0.00;0.00;;;17.10;83.80;;;;;;4967069;28;20039;-68
2023/09/26 09:30:06;;;;;;;0.10;0.10;;;17.10;83.80;;;;;;4970200;28;20443;-68
2023/09/26 09:32:32;;;;;;;0.05;0.05;;;17.10;83.80;;;;;;4969612;28;20042;-68
2023/09/26 09:34:58;;;;;;;0.17;0.17;;;17.20;83.50;;;;;;4969083;28;20047;-68
2023/09/26 09:37:23;;;;;;;0.00;0.00;;;17.10;83.40;;;;;;4969571;28;20041;-68
2023/09/26 09:39:49;;;;;;;0.00;0.00;;;17.10;83.30;;;;;;4969244;28;20082;-68
2023/09/26 09:42:15;;;;;;;0.00;0.00;;;17.20;83.40;;;;;;4969417;28;20058;-67
2023/09/26 09:44:41;;;;;;;0.00;0.00;;;17.20;83.20;;;;;;4964112;28;20768;-68
2023/09/26 09:47:08;;;;;;;0.00;0.00;;;17.20;83.30;;;;;;4984706;28;20477;-68
2023/09/26 09:49:41;;;;;;;0.10;0.10;;;17.30;83.40;;;;;;4969546;28;20049;-68
2023/09/26 09:52:09;;;;;;;0.00;0.00;;;17.30;83.40;;;;;;4968429;28;20071;-67
2023/09/26 09:54:39;;;;;;;0.00;0.00;;;17.40;83.50;;;;;;4967562;28;20057;-68
2023/09/26 09:57:11;;;;;;;0.00;0.00;;;17.40;83.30;;;;;;4969836;28;20050;-68
2023/09/26 09:59:38;;;;;;;0.00;0.00;;;17.40;83.20;;;;;;4969262;28;20583;-68
2023/09/26 10:02:10;;;;;;;0.00;0.00;;;17.50;83.30;;;;;;4969363;28;20415;-68
2023/09/26 10:04:39;;;;;;;;;;;17.50;83.20;;;;;;4968473;28;20054;-68
2023/09/26 10:07:04;;;;;;;0.00;0.00;;;17.60;83.20;;;;;;4969785;28;19969;-68
2023/09/26 10:09:32;;;;;;;0.00;0.00;;;17.60;83.10;;;;;;4969765;28;20043;-69
2023/09/26 10:12:00;;;;;;;0.03;0.03;;;17.60;83.10;;;;;;4968677;28;20035;-67
2023/09/26 10:14:29;;;;;;;0.10;0.10;;;17.60;82.80;;;;;;4968092;28;20105;-67
2023/09/26 10:16:55;;;;;;;0.00;0.00;;;17.70;83.00;;;;;;4969320;28;20039;-68
2023/09/26 10:19:28;;;;;;;0.00;0.00;;;17.80;83.00;;;;;;4969752;28;20452;-67
2023/09/26 10:22:20;;;;;;;0.00;0.00;;;17.90;82.80;;;;;;4969432;28;20041;-69
2023/09/26 10:24:53;;;;;;;0.00;0.00;;;18.00;82.60;;;;;;4964464;28;20094;-68
2023/09/26 10:27:30;;;;;;;0.00;0.00;;;18.00;82.50;;;;;;4968717;28;20039;-68
2023/09/26 10:29:56;;;;;;;0.00;0.00;;;18.00;82.60;;;;;;4967613;28;20936;-67
2023/09/26 10:32:30;;;;;;;0.00;0.00;;;18.10;82.60;;;;;;4968961;28;20059;-68
2023/09/26 10:34:57;;;;;;;0.03;0.03;;;18.10;82.60;;;;;;4967494;28;20053;-69
2023/09/26 10:37:26;;;;;;;0.00;0.00;;;18.20;82.10;;;;;;4967823;28;20039;-68
2023/09/26 10:39:52;;;;;;;0.05;0.05;;;18.20;82.30;;;;;;4969476;28;20070;-68
2023/09/26 10:42:20;;;;;;;0.63;0.43;;;18.20;82.20;;;;;;4969226;28;20082;-69
2023/09/26 10:44:46;;;;;;;0.00;0.00;;;18.20;82.00;;;;;;4967074;28;20500;-69
2023/09/26 10:47:21;;;;;;;0.00;0.00;;;18.30;82.20;;;;;;4969495;28;20046;-69
2023/09/26 10:49:46;;;;;;;0.20;0.20;;;18.30;82.10;;;;;;4968323;28;20079;-69
2023/09/26 10:52:13;;;;;;;0.00;0.00;;;18.40;82.10;;;;;;4966893;28;20078;-68
2023/09/26 10:54:41;;;;;;;0.00;0.00;;;18.40;81.90;;;;;;4971989;28;20125;-69
2023/09/26 10:57:07;;;;;;;0.00;0.00;;;18.50;81.90;;;;;;4972387;28;20080;-69
2023/09/26 10:59:34;;;;;;;0.00;0.00;;;18.50;81.90;;;;;;4972240;28;20043;-69
2023/09/26 11:02:01;;;;;;;0.00;0.00;;;18.50;81.10;;;;;;4972917;28;20129;-68
2023/09/26 11:04:28;;;;;;;0.63;0.63;;;18.50;80.90;;;;;;4968365;28;20435;-69
2023/09/26 11:07:04;;;;;;;0.10;0.10;;;18.60;80.90;;;;;;4969218;28;20070;-69
2023/09/26 11:09:30;;;;;;;0.28;0.25;;;18.80;81.40;;;;;;4972759;28;20380;-68
2023/09/26 11:11:56;;;;;;;0.00;0.00;;;19.00;81.30;;;;;;4972236;28;20038;-68
2023/09/26 11:14:26;;;;;;;0.47;0.43;;;19.10;80.20;;;;;;4970935;28;20046;-69
2023/09/26 11:16:52;;;;;;;0.00;0.00;;;19.30;79.50;;;;;;4970904;28;20377;-69
2023/09/26 11:19:18;;;;;;;0.00;0.00;;;19.40;79.70;;;;;;4972333;28;20039;-69
2023/09/26 11:21:48;;;;;;;0.00;0.00;;;19.40;76.90;;;;;;4971163;28;20046;-68
2023/09/26 11:24:19;;;;;;;0.55;0.55;;;19.60;77.40;;;;;;4967869;28;20062;-69
2023/09/26 11:26:45;;;;;;;;;;;19.60;76.70;;;;;;4972217;28;20055;-69
2023/09/26 11:29:12;;;;;;;0.10;0.10;;;19.70;77.80;;;;;;4969311;28;19926;-69
2023/09/26 11:31:39;;;;;;;0.10;0.10;;;19.80;77.60;;;;;;4969385;28;20071;-69
2023/09/26 11:34:04;;;;;;;0.00;0.00;;;19.90;77.50;;;;;;4971285;28;20523;-69
2023/09/26 11:36:31;;;;;;;0.10;0.10;;;20.00;77.90;;;;;;4971339;28;20046;-70
2023/09/26 11:38:59;;;;;;;0.10;0.10;;;20.10;77.90;;;;;;4971260;28;20038;-69
2023/09/26 11:41:25;;;;;;;0.00;0.00;;;20.30;78.30;;;;;;4970788;28;20058;-69
2023/09/26 11:43:52;;;;;;;0.20;0.20;;;20.30;75.20;;;;;;4970767;28;20043;-69
2023/09/26 11:46:19;;;;;;;0.00;0.00;;;20.40;73.50;;;;;;4966685;28;20074;-69
2023/09/26 11:48:47;;;;;;;0.00;0.00;;;20.50;74.60;;;;;;4952525;28;20043;-69
2023/09/26 11:51:13;;;;;;;0.15;0.15;;;20.60;75.00;;;;;;4959753;28;20492;-69
2023/09/26 11:53:42;;;;;;;0.32;0.32;;;20.70;75.30;;;;;;4969380;28;20061;-69
2023/09/26 11:56:08;;;;;;;0.00;0.00;;;20.70;71.90;;;;;;4970539;28;20050;-69
2023/09/26 11:58:36;;;;;;;0.10;0.10;;;20.80;71.70;;;;;;4964307;28;20043;-69
2023/09/26 12:01:02;;;;;;;0.10;0.10;;;20.90;73.20;;;;;;4968714;28;20057;-69
2023/09/26 12:03:28;;;;;;;0.00;0.00;;;21.00;71.80;;;;;;4966541;28;20035;-69
2023/09/26 12:05:53;;;;;;;0.00;0.00;;;21.00;72.80;;;;;;4971387;28;20082;-69
2023/09/26 12:08:19;;;;;;;0.13;0.13;;;21.00;73.00;;;;;;4969786;28;20393;-69
2023/09/26 12:10:45;;;;;;;0.38;0.38;;;21.10;74.00;;;;;;4969031;28;20456;-69
2023/09/26 12:13:10;;;;;;;0.00;0.00;;;21.10;73.10;;;;;;4971221;28;20050;-69
2023/09/26 12:15:36;;;;;;;0.10;0.10;;;21.20;72.90;;;;;;4971098;28;20049;-69
2023/09/26 12:18:02;;;;;;;0.03;0.03;;;21.20;72.30;;;;;;4970234;28;20055;-69
2023/09/26 12:20:29;;;;;;;0.00;0.00;;;21.20;73.90;;;;;;4970029;28;20043;-69
2023/09/26 12:22:56;;;;;;;0.00;0.00;;;21.20;74.20;;;;;;4966592;28;20066;-69
2023/09/26 12:25:23;;;;;;;0.05;0.05;;;21.10;72.00;;;;;;4965258;28;20093;-69
2023/09/26 12:27:53;;;;;;;0.00;0.00;;;21.10;72.00;;;;;;4968364;28;20043;-70
2023/09/26 12:30:19;;;;;;;0.00;0.00;;;21.10;72.90;;;;;;4970736;28;20764;-70
2023/09/26 12:32:46;;;;;;;0.00;0.00;;;21.10;71.90;;;;;;4970140;28;20085;-70
2023/09/26 12:35:11;;;;;;;0.00;0.00;;;21.10;71.30;;;;;;4970283;28;20039;-69
2023/09/26 12:37:37;;;;;;;0.00;0.00;;;21.10;69.30;;;;;;4969680;28;20043;-69
2023/09/26 12:40:08;;;;;;;0.00;0.00;;;21.00;69.40;;;;;;4970175;28;20050;-70
2023/09/26 12:42:35;;;;;;;0.00;0.00;;;21.00;70.10;;;;;;4985484;28;20046;-69
2023/09/26 12:45:00;;;;;;;0.00;0.00;;;21.10;71.70;;;;;;4968589;28;20130;-68